createdAt,value
2017-12-30T00:01:26.358Z,2.70
2017-12-30T00:03:54.579Z,1.77
2017-12-30T00:06:22.091Z,1.80
2017-12-30T00:08:50.377Z,1.77
2017-12-30T00:11:18.634Z,1.70
2017-12-30T00:13:46.188Z,1.83
2017-12-30T00:16:13.655Z,1.80
2017-12-30T00:18:41.884Z,1.80
2017-12-30T00:21:09.362Z,1.97
2017-12-30T00:23:36.830Z,1.50
2017-12-30T00:26:04.413Z,1.20
2017-12-30T00:28:32.678Z,1.47
2017-12-30T00:31:00.890Z,1.40
2017-12-30T00:33:28.352Z,1.33
2017-12-30T00:35:55.823Z,1.80
2017-12-30T00:38:23.292Z,1.50
2017-12-30T00:40:50.888Z,1.30
2017-12-30T00:43:18.420Z,1.40
2017-12-30T00:45:45.887Z,1.40
2017-12-30T00:48:14.112Z,1.80
2017-12-30T00:50:41.603Z,1.67
2017-12-30T00:53:09.073Z,1.60
2017-12-30T00:55:37.291Z,1.40
2017-12-30T00:58:04.763Z,2.00
2017-12-30T01:00:32.263Z,1.47
2017-12-30T01:03:00.494Z,1.40
2017-12-30T01:05:27.971Z,1.40
2017-12-30T01:07:55.426Z,1.50
2017-12-30T01:10:22.898Z,1.50
2017-12-30T01:12:51.116Z,1.40
2017-12-30T01:15:18.576Z,1.30
2017-12-30T01:17:46.039Z,1.63
2017-12-30T01:20:13.504Z,1.40
2017-12-30T01:22:41.038Z,1.50
2017-12-30T01:25:08.502Z,1.93
2017-12-30T01:27:35.999Z,1.33
2017-12-30T01:30:03.567Z,1.73
2017-12-30T01:32:31.788Z,1.80
2017-12-30T01:34:59.255Z,1.20
2017-12-30T01:37:26.725Z,1.60
2017-12-30T01:39:54.208Z,1.57
2017-12-30T01:42:22.432Z,2.17
2017-12-30T01:44:49.883Z,1.40
2017-12-30T01:47:17.356Z,1.27
2017-12-30T01:49:44.808Z,1.20
2017-12-30T01:52:12.392Z,1.50
2017-12-30T01:54:39.857Z,1.53
2017-12-30T01:57:07.328Z,1.43
2017-12-30T01:59:34.864Z,1.87
2017-12-30T02:02:02.321Z,1.60
2017-12-30T02:04:29.826Z,1.70
2017-12-30T02:06:57.288Z,1.30
2017-12-30T02:09:24.764Z,1.23
2017-12-30T02:11:52.215Z,2.23
2017-12-30T02:14:19.704Z,1.80
2017-12-30T02:16:47.938Z,1.87
2017-12-30T02:19:15.374Z,1.33
2017-12-30T02:21:42.848Z,1.70
2017-12-30T02:24:10.337Z,1.60
2017-12-30T02:26:37.792Z,1.80
2017-12-30T02:29:05.366Z,1.60
2017-12-30T02:31:33.579Z,1.50
2017-12-30T02:34:01.037Z,1.60
2017-12-30T02:36:28.509Z,1.43
2017-12-30T02:38:55.980Z,2.00
2017-12-30T02:41:23.456Z,1.70
2017-12-30T02:43:51.676Z,1.67
2017-12-30T02:46:19.156Z,1.83
2017-12-30T02:48:46.640Z,2.33
2017-12-30T02:51:14.854Z,1.50
2017-12-30T02:53:42.322Z,2.13
2017-12-30T02:56:09.798Z,1.47
2017-12-30T02:58:37.268Z,1.77
2017-12-30T03:01:04.724Z,1.37
2017-12-30T03:03:32.216Z,1.50
2017-12-30T03:05:59.740Z,1.57
2017-12-30T03:08:27.238Z,1.83
2017-12-30T03:10:54.761Z,2.27
2017-12-30T03:13:22.227Z,1.30
2017-12-30T03:15:50.475Z,1.70
2017-12-30T03:18:19.430Z,2.57
2017-12-30T03:20:46.928Z,1.50
2017-12-30T03:23:14.420Z,1.80
2017-12-30T03:25:41.964Z,2.07
2017-12-30T03:28:10.170Z,2.60
2017-12-30T03:30:37.683Z,1.70
2017-12-30T03:33:05.229Z,1.30
2017-12-30T03:35:32.718Z,1.60
2017-12-30T03:38:00.230Z,1.70
2017-12-30T03:40:27.702Z,2.17
2017-12-30T03:42:55.158Z,1.37
2017-12-30T03:45:22.616Z,2.70
2017-12-30T03:47:50.177Z,1.80
2017-12-30T03:50:17.642Z,1.90
2017-12-30T03:52:45.878Z,1.60
2017-12-30T03:55:13.344Z,1.93
2017-12-30T03:57:40.790Z,1.93
2017-12-30T04:00:08.279Z,1.50
2017-12-30T04:02:36.545Z,1.63
2017-12-30T04:05:04.030Z,1.40
2017-12-30T04:07:31.466Z,1.30
2017-12-30T04:09:59.686Z,1.63
2017-12-30T04:12:27.160Z,1.60
2017-12-30T04:14:54.636Z,2.33
2017-12-30T04:17:22.110Z,1.77
2017-12-30T04:19:50.354Z,1.73
2017-12-30T04:22:17.842Z,2.10
2017-12-30T04:24:46.066Z,2.00
2017-12-30T04:27:13.538Z,1.77
2017-12-30T04:29:41.038Z,1.93
2017-12-30T04:32:09.280Z,1.97
2017-12-30T04:34:36.756Z,1.87
2017-12-30T04:37:04.998Z,1.80
2017-12-30T04:39:32.568Z,1.83
2017-12-30T04:42:00.046Z,1.87
2017-12-30T04:44:28.263Z,1.90
2017-12-30T04:46:55.730Z,1.93
2017-12-30T04:49:23.178Z,1.90
2017-12-30T04:51:50.631Z,1.60
2017-12-30T04:54:18.121Z,2.20
2017-12-30T04:56:45.570Z,1.40
2017-12-30T04:59:13.817Z,1.50
2017-12-30T05:01:41.292Z,2.13
2017-12-30T05:04:08.778Z,1.80
2017-12-30T05:06:37.127Z,2.20
2017-12-30T05:09:04.700Z,1.93
2017-12-30T05:11:32.936Z,1.80
2017-12-30T05:14:00.405Z,2.03
2017-12-30T05:16:27.898Z,2.30
2017-12-30T05:18:56.169Z,1.60
2017-12-30T05:21:24.402Z,1.80
2017-12-30T05:23:51.871Z,2.00
2017-12-30T05:26:19.365Z,1.50
2017-12-30T05:28:47.610Z,1.57
2017-12-30T05:31:15.222Z,1.83
2017-12-30T05:33:42.668Z,2.03
2017-12-30T05:36:10.136Z,2.37
2017-12-30T05:38:37.646Z,1.80
2017-12-30T05:41:05.091Z,1.47
2017-12-30T05:43:33.348Z,1.73
2017-12-30T05:46:00.813Z,2.00
2017-12-30T05:48:28.266Z,1.97
2017-12-30T05:50:55.757Z,2.03
2017-12-30T05:53:23.975Z,1.60
2017-12-30T05:55:51.447Z,1.83
2017-12-30T05:58:19.034Z,2.00
2017-12-30T06:00:46.478Z,1.40
2017-12-30T06:03:13.936Z,1.83
2017-12-30T06:05:41.426Z,2.37
2017-12-30T06:08:08.870Z,1.87
2017-12-30T06:10:37.111Z,2.20
2017-12-30T06:13:04.603Z,2.23
2017-12-30T06:15:32.150Z,2.10
2017-12-30T06:18:00.384Z,2.50
2017-12-30T06:20:27.897Z,5.20
2017-12-30T06:22:55.339Z,2.57
2017-12-30T06:25:23.556Z,2.00
2017-12-30T06:27:51.062Z,1.87
2017-12-30T06:30:19.286Z,1.90
2017-12-30T06:32:46.766Z,2.00
2017-12-30T06:35:14.999Z,3.20
2017-12-30T06:37:42.496Z,2.00
2017-12-30T06:40:09.944Z,2.00
2017-12-30T06:42:37.408Z,2.43
2017-12-30T06:45:04.875Z,2.17
2017-12-30T06:47:32.332Z,3.77
2017-12-30T06:49:59.894Z,2.30
2017-12-30T06:52:27.420Z,1.67
2017-12-30T06:54:54.889Z,2.10
2017-12-30T06:57:22.366Z,2.70
2017-12-30T06:59:50.632Z,1.83
2017-12-30T07:02:18.078Z,2.47
2017-12-30T07:04:45.563Z,2.20
2017-12-30T07:07:13.789Z,2.80
2017-12-30T07:09:41.290Z,3.67
2017-12-30T07:12:09.511Z,5.13
2017-12-30T07:14:36.968Z,2.93
2017-12-30T07:17:04.452Z,3.10
2017-12-30T07:19:31.923Z,3.10
2017-12-30T07:22:00.206Z,3.27
2017-12-30T07:24:28.461Z,3.30
2017-12-30T07:26:55.914Z,2.73
2017-12-30T07:29:23.431Z,3.27
2017-12-30T07:31:51.617Z,3.07
2017-12-30T07:34:19.088Z,2.83
2017-12-30T07:36:46.664Z,3.50
2017-12-30T07:39:14.134Z,2.80
2017-12-30T07:41:42.424Z,3.13
2017-12-30T07:44:09.894Z,3.00
2017-12-30T07:46:37.366Z,3.60
2017-12-30T07:49:04.827Z,2.80
2017-12-30T07:51:32.288Z,2.77
2017-12-30T07:54:00.741Z,2.40
2017-12-30T07:56:28.207Z,2.83
2017-12-30T07:58:55.658Z,2.90
2017-12-30T08:01:23.162Z,2.47
2017-12-30T08:03:50.674Z,2.37
2017-12-30T08:06:18.174Z,2.30
2017-12-30T08:08:45.677Z,2.67
2017-12-30T08:11:13.119Z,2.33
2017-12-30T08:13:40.596Z,2.27
2017-12-30T08:16:08.067Z,2.30
2017-12-30T08:18:35.556Z,1.93
2017-12-30T08:21:03.026Z,2.20
2017-12-30T08:23:31.284Z,2.13
2017-12-30T08:25:58.846Z,1.60
2017-12-30T08:28:26.291Z,2.00
2017-12-30T08:30:53.754Z,2.00
2017-12-30T08:33:22.034Z,1.67
2017-12-30T08:35:49.507Z,2.17
2017-12-30T08:38:17.722Z,1.90
2017-12-30T08:40:45.178Z,1.70
2017-12-30T08:43:12.673Z,1.97
2017-12-30T08:45:40.158Z,2.03
2017-12-30T08:48:07.618Z,2.30
2017-12-30T08:50:35.075Z,1.97
2017-12-30T08:53:02.560Z,1.80
2017-12-30T08:55:30.011Z,1.87
2017-12-30T08:57:57.505Z,1.73
2017-12-30T09:00:25.045Z,1.60
2017-12-30T09:02:52.527Z,1.70
2017-12-30T09:05:20.758Z,1.43
2017-12-30T09:07:48.215Z,1.37
2017-12-30T09:10:15.680Z,2.03
2017-12-30T09:12:43.265Z,1.43
2017-12-30T09:15:10.716Z,1.97
2017-12-30T09:17:38.174Z,1.53
2017-12-30T09:20:06.426Z,1.23
2017-12-30T09:22:33.866Z,1.50
2017-12-30T09:25:01.336Z,1.37
2017-12-30T09:27:28.802Z,1.90
2017-12-30T09:29:56.268Z,2.60
2017-12-30T09:32:23.736Z,1.90
2017-12-30T09:34:51.950Z,2.57
2017-12-30T09:37:19.428Z,2.47
2017-12-30T09:39:46.875Z,3.07
2017-12-30T09:42:14.340Z,2.20
2017-12-30T09:44:41.810Z,2.40
2017-12-30T09:47:09.282Z,2.97
2017-12-30T09:49:37.552Z,2.57
2017-12-30T09:52:05.108Z,1.97
2017-12-30T09:54:32.610Z,2.37
2017-12-30T09:57:00.167Z,1.90
2017-12-30T09:59:27.708Z,1.90
2017-12-30T10:01:55.184Z,2.37
2017-12-30T10:04:22.711Z,1.90
2017-12-30T10:06:50.948Z,2.33
2017-12-30T10:09:18.422Z,1.53
2017-12-30T10:11:45.912Z,1.80
2017-12-30T10:14:13.369Z,1.90
2017-12-30T10:16:40.825Z,1.90
2017-12-30T10:19:08.348Z,2.20
2017-12-30T10:21:35.840Z,1.40
2017-12-30T10:24:03.315Z,2.10
2017-12-30T10:26:30.808Z,1.40
2017-12-30T10:28:58.271Z,1.40
2017-12-30T10:31:25.827Z,1.80
2017-12-30T10:33:53.295Z,2.00
2017-12-30T10:36:21.562Z,1.83
2017-12-30T10:38:49.032Z,1.53
2017-12-30T10:41:17.270Z,1.77
2017-12-30T10:43:44.745Z,2.10
2017-12-30T10:46:12.212Z,1.40
2017-12-30T10:48:40.457Z,1.77
2017-12-30T10:51:08.028Z,1.90
2017-12-30T10:53:35.498Z,1.87
2017-12-30T10:56:03.774Z,1.83
2017-12-30T10:58:31.998Z,1.83
2017-12-30T11:00:59.458Z,1.50
2017-12-30T11:03:26.924Z,1.70
2017-12-30T11:05:54.498Z,3.43
2017-12-30T11:08:21.955Z,1.87
2017-12-30T11:10:49.411Z,1.80
2017-12-30T11:13:16.922Z,2.00
2017-12-30T11:15:44.445Z,2.00
2017-12-30T11:18:12.670Z,2.03
2017-12-30T11:20:40.124Z,2.57
2017-12-30T11:23:07.717Z,2.10
2017-12-30T11:25:35.287Z,2.57
2017-12-30T11:28:03.516Z,2.20
2017-12-30T11:30:31.040Z,1.83
2017-12-30T11:32:58.584Z,3.00
2017-12-30T11:35:26.831Z,1.80
2017-12-30T11:37:54.296Z,2.40
2017-12-30T11:40:21.751Z,1.90
2017-12-30T11:42:50.074Z,2.10
2017-12-30T11:45:17.576Z,2.20
2017-12-30T11:47:45.044Z,1.90
2017-12-30T11:50:13.275Z,2.20
2017-12-30T11:52:40.764Z,1.90
2017-12-30T11:55:08.215Z,1.80
2017-12-30T11:57:36.620Z,2.30
2017-12-30T12:00:04.082Z,2.27
2017-12-30T12:02:31.558Z,1.70
2017-12-30T12:04:59.012Z,2.20
2017-12-30T12:07:26.500Z,1.83
2017-12-30T12:09:53.956Z,2.83
2017-12-30T12:12:21.432Z,2.20
2017-12-30T12:14:48.898Z,1.90
2017-12-30T12:17:17.138Z,2.33
2017-12-30T12:19:44.610Z,1.87
2017-12-30T12:22:12.191Z,1.37
2017-12-30T12:24:40.430Z,1.60
2017-12-30T12:27:07.929Z,1.43
2017-12-30T12:29:36.142Z,1.70
2017-12-30T12:32:03.616Z,1.30
2017-12-30T12:34:31.115Z,1.93
2017-12-30T12:36:58.648Z,1.20
2017-12-30T12:39:26.101Z,1.63
2017-12-30T12:41:53.556Z,1.43
2017-12-30T12:44:21.128Z,1.30
2017-12-30T12:46:49.406Z,1.40
2017-12-30T12:49:17.622Z,1.30
2017-12-30T12:51:45.080Z,1.20
2017-12-30T12:54:12.542Z,2.00
2017-12-30T12:56:40.015Z,1.70
2017-12-30T12:59:07.472Z,2.03
2017-12-30T13:01:34.939Z,1.53
2017-12-30T13:04:02.496Z,1.40
2017-12-30T13:06:30.065Z,1.60
2017-12-30T13:08:57.530Z,2.07
2017-12-30T13:11:25.783Z,1.57
2017-12-30T13:13:53.266Z,2.33
2017-12-30T13:16:21.483Z,2.00
2017-12-30T13:18:48.972Z,1.90
2017-12-30T13:21:16.435Z,1.87
2017-12-30T13:23:44.709Z,1.40
2017-12-30T13:26:12.958Z,1.50
2017-12-30T13:28:40.427Z,1.77
2017-12-30T13:31:07.977Z,1.27
2017-12-30T13:33:35.402Z,1.47
2017-12-30T13:36:02.865Z,1.57
2017-12-30T13:38:30.338Z,1.50
2017-12-30T13:40:57.839Z,1.30
2017-12-30T13:43:26.056Z,1.47
2017-12-30T13:45:53.521Z,1.33
2017-12-30T13:48:20.996Z,1.30
2017-12-30T13:50:48.466Z,1.63
2017-12-30T13:53:16.690Z,1.40
2017-12-30T13:55:44.148Z,1.50
2017-12-30T13:58:11.616Z,1.33
2017-12-30T14:00:39.072Z,1.30
2017-12-30T14:03:06.528Z,1.37
2017-12-30T14:05:34.007Z,1.17
2017-12-30T14:08:01.804Z,1.40
2017-12-30T14:10:29.268Z,1.70
2017-12-30T14:12:56.748Z,1.40
2017-12-30T14:15:24.214Z,1.40
2017-12-30T14:17:51.666Z,1.60
2017-12-30T14:20:19.149Z,1.50
2017-12-30T14:22:46.727Z,1.70
2017-12-30T14:25:14.930Z,1.40
2017-12-30T14:27:42.378Z,1.30
2017-12-30T14:30:09.879Z,1.10
2017-12-30T14:32:37.471Z,1.40
2017-12-30T14:35:05.693Z,1.00
2017-12-30T14:37:33.178Z,1.20
2017-12-30T14:40:01.394Z,1.50
2017-12-30T14:42:28.880Z,1.40
2017-12-30T14:44:56.351Z,1.10
2017-12-30T14:47:23.812Z,1.40
2017-12-30T14:49:51.267Z,1.53
2017-12-30T14:52:18.728Z,1.10
2017-12-30T14:54:46.294Z,1.30
2017-12-30T14:57:13.831Z,1.23
2017-12-30T14:59:41.303Z,2.90
2017-12-30T15:02:08.780Z,0.90
2017-12-30T15:04:37.000Z,1.10
2017-12-30T15:07:04.491Z,0.90
2017-12-30T15:09:32.036Z,1.20
2017-12-30T15:11:59.600Z,0.80
2017-12-30T15:14:27.076Z,1.10
2017-12-30T15:16:55.311Z,1.03
2017-12-30T15:19:22.749Z,1.00
2017-12-30T15:21:50.239Z,1.20
2017-12-30T15:24:17.707Z,1.20
2017-12-30T15:26:45.922Z,1.20
2017-12-30T15:29:13.425Z,1.60
2017-12-30T15:31:40.872Z,1.30
2017-12-30T15:34:08.364Z,1.20
2017-12-30T15:36:36.583Z,1.23
2017-12-30T15:39:04.054Z,1.23
2017-12-30T15:41:31.548Z,1.10
2017-12-30T15:43:59.775Z,1.60
2017-12-30T15:46:27.222Z,0.80
2017-12-30T15:48:54.710Z,1.00
2017-12-30T15:51:22.182Z,1.33
2017-12-30T15:53:50.451Z,1.23
2017-12-30T15:56:18.723Z,1.20
2017-12-30T15:58:46.949Z,1.30
2017-12-30T16:01:14.440Z,1.00
2017-12-30T16:03:41.891Z,1.20
2017-12-30T16:06:09.352Z,1.20
2017-12-30T16:08:36.806Z,1.20
2017-12-30T16:11:04.306Z,1.10
2017-12-30T16:13:31.811Z,1.10
2017-12-30T16:15:59.422Z,1.00
2017-12-30T16:18:26.875Z,1.40
2017-12-30T16:20:54.384Z,1.20
2017-12-30T16:23:21.952Z,2.20
2017-12-30T16:25:49.508Z,1.70
2017-12-30T16:28:16.964Z,1.50
2017-12-30T16:30:44.432Z,1.80
2017-12-30T16:33:12.646Z,1.30
2017-12-30T16:35:40.108Z,1.10
2017-12-30T16:38:07.590Z,1.00
2017-12-30T16:40:35.060Z,1.03
2017-12-30T16:43:04.154Z,1.00
2017-12-30T16:45:31.622Z,0.90
2017-12-30T16:47:59.877Z,0.80
2017-12-30T16:50:27.355Z,0.80
2017-12-30T16:52:55.582Z,1.10
2017-12-30T16:55:23.036Z,1.53
2017-12-30T16:57:50.494Z,1.13
2017-12-30T17:00:17.976Z,1.00
2017-12-30T17:02:45.424Z,1.00
2017-12-30T17:05:12.982Z,1.07
2017-12-30T17:07:40.540Z,1.10
2017-12-30T17:10:08.831Z,1.50
2017-12-30T17:12:36.312Z,0.90
2017-12-30T17:15:03.769Z,1.23
2017-12-30T17:17:31.300Z,1.00
2017-12-30T17:19:58.764Z,1.07
2017-12-30T17:22:27.037Z,1.00
2017-12-30T17:24:55.300Z,1.00
2017-12-30T17:27:23.519Z,1.07
2017-12-30T17:29:51.002Z,0.90
2017-12-30T17:32:18.466Z,1.03
2017-12-30T17:34:45.935Z,0.80
2017-12-30T17:37:13.398Z,2.00
2017-12-30T17:39:40.874Z,1.10
2017-12-30T17:42:09.099Z,1.00
2017-12-30T17:44:36.577Z,1.20
2017-12-30T17:47:04.040Z,1.33
2017-12-30T17:49:31.548Z,0.80
2017-12-30T17:51:59.029Z,1.10
2017-12-30T17:54:26.626Z,0.90
2017-12-30T17:56:54.857Z,1.10
2017-12-30T17:59:22.340Z,1.30
2017-12-30T18:01:49.886Z,1.00
2017-12-30T18:04:17.418Z,1.00
2017-12-30T18:06:44.903Z,0.93
2017-12-30T18:09:12.373Z,1.00
2017-12-30T18:11:40.601Z,1.27
2017-12-30T18:14:08.060Z,0.77
2017-12-30T18:16:35.517Z,1.10
2017-12-30T18:19:03.103Z,1.00
2017-12-30T18:21:30.584Z,1.17
2017-12-30T18:23:58.830Z,1.10
2017-12-30T18:26:26.496Z,1.47
2017-12-30T18:28:53.988Z,1.10
2017-12-30T18:31:21.462Z,1.23
2017-12-30T18:33:48.932Z,1.23
2017-12-30T18:36:16.389Z,1.00
2017-12-30T18:38:43.849Z,1.10
2017-12-30T18:41:11.336Z,1.07
2017-12-30T18:43:39.574Z,0.93
2017-12-30T18:46:07.055Z,1.00
2017-12-30T18:48:34.550Z,2.40
2017-12-30T18:51:02.008Z,1.00
2017-12-30T18:53:29.463Z,0.93
2017-12-30T18:55:56.931Z,1.10
2017-12-30T18:58:24.445Z,1.00
2017-12-30T19:00:51.923Z,1.00
2017-12-30T19:03:20.155Z,1.00
2017-12-30T19:05:47.659Z,1.10
2017-12-30T19:08:15.132Z,0.90
2017-12-30T19:10:42.592Z,1.07
2017-12-30T19:13:10.071Z,1.10
2017-12-30T19:15:37.531Z,1.23
2017-12-30T19:18:05.437Z,1.10
2017-12-30T19:20:33.698Z,1.03
2017-12-30T19:23:01.918Z,1.00
2017-12-30T19:25:29.418Z,0.90
2017-12-30T19:27:56.900Z,1.37
2017-12-30T19:30:25.150Z,0.93
2017-12-30T19:32:52.708Z,1.47
2017-12-30T19:35:20.166Z,0.97
2017-12-30T19:37:47.645Z,0.90
2017-12-30T19:40:15.997Z,0.83
2017-12-30T19:42:43.552Z,1.13
2017-12-30T19:45:11.024Z,0.90
2017-12-30T19:47:39.264Z,2.40
2017-12-30T19:50:06.713Z,0.97
2017-12-30T19:52:34.200Z,0.90
2017-12-30T19:55:02.414Z,1.00
2017-12-30T19:57:29.897Z,0.90
2017-12-30T19:59:57.376Z,0.70
2017-12-30T20:02:24.822Z,1.10
2017-12-30T20:04:52.398Z,1.10
2017-12-30T20:07:20.653Z,1.13
2017-12-30T20:09:48.210Z,1.17
2017-12-30T20:12:15.692Z,1.17
2017-12-30T20:14:43.902Z,1.50
2017-12-30T20:17:11.388Z,1.00
2017-12-30T20:19:38.874Z,1.00
2017-12-30T20:22:06.420Z,0.90
2017-12-30T20:24:33.981Z,0.80
2017-12-30T20:27:02.022Z,0.70
2017-12-30T20:29:29.618Z,0.80
2017-12-30T20:31:57.874Z,0.80
2017-12-30T20:34:25.319Z,0.83
2017-12-30T20:36:52.815Z,0.87
2017-12-30T20:39:21.032Z,0.90
2017-12-30T20:41:48.544Z,0.83
2017-12-30T20:44:16.083Z,0.70
2017-12-30T20:46:44.320Z,0.90
2017-12-30T20:49:11.790Z,1.07
2017-12-30T20:51:39.277Z,0.97
2017-12-30T20:54:07.519Z,0.90
2017-12-30T20:56:35.110Z,0.90
2017-12-30T20:59:03.331Z,0.70
2017-12-30T21:01:30.810Z,1.13
2017-12-30T21:03:58.393Z,0.90
2017-12-30T21:06:25.862Z,1.00
2017-12-30T21:08:54.084Z,0.83
2017-12-30T21:11:21.572Z,0.83
2017-12-30T21:13:49.132Z,0.90
2017-12-30T21:16:16.684Z,1.00
2017-12-30T21:18:44.210Z,0.80
2017-12-30T21:21:11.682Z,0.90
2017-12-30T21:23:39.157Z,0.90
2017-12-30T21:26:06.626Z,0.90
2017-12-30T21:28:34.871Z,0.83
2017-12-30T21:31:02.320Z,0.80
2017-12-30T21:33:29.775Z,0.87
2017-12-30T21:35:57.262Z,0.73
2017-12-30T21:38:25.481Z,0.90
2017-12-30T21:40:52.972Z,0.83
2017-12-30T21:43:20.459Z,0.90
2017-12-30T21:45:48.711Z,0.90
2017-12-30T21:48:16.178Z,0.90
2017-12-30T21:50:44.438Z,0.73
2017-12-30T21:53:11.904Z,1.27
2017-12-30T21:55:39.396Z,0.70
2017-12-30T21:58:06.867Z,0.90
2017-12-30T22:00:34.318Z,0.70
2017-12-30T22:03:01.786Z,0.90
2017-12-30T22:05:29.249Z,1.10
2017-12-30T22:07:56.719Z,0.90
2017-12-30T22:10:24.306Z,0.80
2017-12-30T22:12:52.524Z,0.87
2017-12-30T22:15:20.004Z,0.83
2017-12-30T22:17:47.578Z,0.80
2017-12-30T22:20:15.141Z,0.70
2017-12-30T22:22:42.685Z,0.80
2017-12-30T22:25:10.165Z,0.90
2017-12-30T22:27:38.398Z,1.00
2017-12-30T22:30:05.893Z,0.80
2017-12-30T22:32:34.102Z,0.90
2017-12-30T22:35:01.577Z,0.70
2017-12-30T22:37:29.061Z,0.77
2017-12-30T22:39:56.509Z,0.70
2017-12-30T22:42:23.971Z,0.70
2017-12-30T22:44:51.442Z,0.77
2017-12-30T22:47:19.694Z,0.70
2017-12-30T22:49:47.154Z,0.90
2017-12-30T22:52:14.610Z,0.63
2017-12-30T22:54:42.076Z,0.60
2017-12-30T22:57:10.316Z,0.80
2017-12-30T22:59:37.903Z,1.00
2017-12-30T23:02:05.359Z,0.60
2017-12-30T23:04:32.826Z,0.73
2017-12-30T23:07:01.088Z,0.77
2017-12-30T23:09:28.544Z,0.80
2017-12-30T23:11:56.114Z,0.70
2017-12-30T23:14:24.351Z,0.63
2017-12-30T23:16:51.833Z,0.70
2017-12-30T23:19:19.319Z,0.67
2017-12-30T23:21:46.781Z,0.83
2017-12-30T23:24:14.286Z,0.70
2017-12-30T23:26:41.750Z,0.87
2017-12-30T23:29:09.217Z,0.70
2017-12-30T23:31:36.684Z,0.70
2017-12-30T23:34:04.904Z,0.60
2017-12-30T23:36:32.364Z,0.93
2017-12-30T23:38:59.827Z,0.70
2017-12-30T23:41:27.301Z,0.60
2017-12-30T23:43:54.767Z,0.70
2017-12-30T23:46:22.219Z,0.80
2017-12-30T23:48:49.699Z,0.60
2017-12-30T23:51:17.924Z,0.60
2017-12-30T23:53:45.418Z,0.60
2017-12-30T23:56:13.648Z,0.63
2017-12-30T23:58:41.136Z,0.63
